createdAt,value
2022-07-29T00:01:43.832Z,100775.38
2022-07-29T00:04:11.878Z,100773.46
2022-07-29T00:06:39.834Z,100771.00
2022-07-29T00:09:07.729Z,100771.73
2022-07-29T00:11:35.188Z,100771.10
2022-07-29T00:14:02.676Z,100773.08
2022-07-29T00:16:30.281Z,100771.05
2022-07-29T00:19:00.633Z,100770.23
2022-07-29T00:21:29.863Z,100769.13
2022-07-29T00:23:57.367Z,100767.52
2022-07-29T00:26:24.806Z,100769.55
2022-07-29T00:28:52.314Z,100768.77
2022-07-29T00:31:20.382Z,100771.31
2022-07-29T00:33:47.882Z,100769.95
2022-07-29T00:36:15.382Z,100770.11
2022-07-29T00:38:46.225Z,100769.61
2022-07-29T00:41:13.769Z,100769.63
2022-07-29T00:43:41.781Z,100769.14
2022-07-29T00:46:09.423Z,100770.77
2022-07-29T00:48:37.253Z,100774.30
2022-07-29T00:51:06.567Z,100774.12
2022-07-29T00:53:36.586Z,100769.36
2022-07-29T00:56:04.727Z,100775.98
2022-07-29T00:58:32.534Z,100776.14
2022-07-29T01:01:00.107Z,100777.91
2022-07-29T01:03:27.793Z,100776.05
2022-07-29T01:05:55.910Z,100775.63
2022-07-29T01:08:24.640Z,100779.26
2022-07-29T01:10:53.390Z,100781.55
2022-07-29T01:13:22.744Z,100786.10
2022-07-29T01:16:02.916Z,100782.05
2022-07-29T01:18:38.756Z,100782.91
2022-07-29T01:21:45.192Z,100781.86
2022-07-29T01:24:35.705Z,100782.23
2022-07-29T01:27:31.582Z,100781.20
2022-07-29T01:30:02.720Z,100785.65
2022-07-29T01:32:36.917Z,100785.70
2022-07-29T01:35:11.472Z,100782.38
2022-07-29T01:37:49.821Z,100781.15
2022-07-29T01:40:28.770Z,100781.69
2022-07-29T01:42:59.002Z,100782.76
2022-07-29T01:45:44.390Z,100783.17
2022-07-29T01:48:30.351Z,100788.33
2022-07-29T01:51:05.406Z,100785.86
2022-07-29T01:54:06.257Z,100781.61
2022-07-29T01:56:36.145Z,100779.45
2022-07-29T01:59:07.596Z,100778.77
2022-07-29T02:01:36.764Z,100774.58
2022-07-29T02:04:07.305Z,100775.13
2022-07-29T02:06:38.412Z,100774.13
2022-07-29T02:09:08.906Z,100774.53
2022-07-29T02:11:38.724Z,100778.63
2022-07-29T02:14:09.345Z,100786.23
2022-07-29T02:16:38.878Z,100786.84
2022-07-29T02:19:09.591Z,100788.16
2022-07-29T02:21:37.072Z,100793.10
2022-07-29T02:24:05.991Z,100793.46
2022-07-29T02:26:35.114Z,100795.45
2022-07-29T02:29:03.401Z,100793.57
2022-07-29T02:31:35.446Z,100793.64
2022-07-29T02:34:06.722Z,100793.85
2022-07-29T02:36:35.204Z,100795.52
2022-07-29T02:39:04.389Z,100791.39
2022-07-29T02:41:41.185Z,100790.23
2022-07-29T02:44:31.250Z,100786.92
2022-07-29T02:47:20.313Z,100786.55
2022-07-29T02:50:03.784Z,100785.30
2022-07-29T02:52:38.989Z,100785.16
2022-07-29T02:55:11.763Z,100782.56
2022-07-29T02:58:00.152Z,100781.54
2022-07-29T03:00:31.121Z,100780.21
2022-07-29T03:03:03.035Z,100781.27
2022-07-29T03:05:31.967Z,100779.85
2022-07-29T03:08:04.848Z,100782.45
2022-07-29T03:10:33.812Z,100780.63
2022-07-29T03:13:02.503Z,100780.57
2022-07-29T03:15:30.428Z,100776.35
2022-07-29T03:17:59.457Z,100776.88
2022-07-29T03:20:27.386Z,100777.98
2022-07-29T03:22:54.956Z,100777.15
2022-07-29T03:25:22.642Z,100777.52
2022-07-29T03:27:50.084Z,100776.38
2022-07-29T03:30:21.769Z,100778.89
2022-07-29T03:32:52.047Z,100776.34
2022-07-29T03:35:23.496Z,100782.39
2022-07-29T03:37:50.945Z,100780.78
2022-07-29T03:40:27.040Z,100779.88
2022-07-29T03:42:56.397Z,100780.48
2022-07-29T03:45:26.320Z,100779.15
2022-07-29T03:48:01.294Z,100780.29
2022-07-29T03:50:31.563Z,100780.90
2022-07-29T03:52:59.536Z,100782.46
2022-07-29T03:55:30.161Z,100784.31
2022-07-29T03:57:59.038Z,100787.15
2022-07-29T04:00:28.322Z,100787.16
2022-07-29T04:02:56.677Z,100786.95
2022-07-29T04:05:24.288Z,100786.36
2022-07-29T04:07:51.747Z,100788.58
2022-07-29T04:10:30.182Z,100783.48
2022-07-29T04:13:00.714Z,100783.67
2022-07-29T04:15:31.514Z,100783.71
2022-07-29T04:18:00.366Z,100780.43
2022-07-29T04:20:28.107Z,100779.63
2022-07-29T04:22:55.566Z,100778.45
2022-07-29T04:25:23.254Z,100777.05
2022-07-29T04:28:06.698Z,100771.63
2022-07-29T04:30:35.513Z,100767.92
2022-07-29T04:33:05.838Z,100768.98
2022-07-29T04:35:38.965Z,100775.60
2022-07-29T04:38:17.252Z,100781.01
2022-07-29T04:40:44.911Z,100782.74
2022-07-29T04:43:13.175Z,100780.06
2022-07-29T04:45:43.189Z,100777.69
2022-07-29T04:48:10.736Z,100777.98
2022-07-29T04:50:41.908Z,100777.55
2022-07-29T04:53:09.492Z,100773.10
2022-07-29T04:55:37.390Z,100768.58
2022-07-29T04:58:06.645Z,100765.42
2022-07-29T05:00:35.489Z,100763.92
2022-07-29T05:03:03.127Z,100764.00
2022-07-29T05:05:30.810Z,100766.60
2022-07-29T05:07:58.578Z,100765.77
2022-07-29T05:10:26.339Z,100767.86
2022-07-29T05:12:53.790Z,100775.02
2022-07-29T05:15:21.356Z,100775.27
2022-07-29T05:17:48.806Z,100770.70
2022-07-29T05:20:16.219Z,100773.54
2022-07-29T05:22:43.717Z,100775.32
2022-07-29T05:25:11.388Z,100776.59
2022-07-29T05:27:38.876Z,100776.85
2022-07-29T05:30:07.013Z,100776.86
2022-07-29T05:32:34.463Z,100774.42
2022-07-29T05:35:02.105Z,100775.38
2022-07-29T05:37:29.545Z,100775.77
2022-07-29T05:39:58.996Z,100774.52
2022-07-29T05:42:27.434Z,100769.60
2022-07-29T05:44:54.912Z,100765.89
2022-07-29T05:47:23.081Z,100767.34
2022-07-29T05:49:52.088Z,100769.94
2022-07-29T05:52:19.719Z,100773.91
2022-07-29T05:54:47.392Z,100776.27
2022-07-29T05:57:20.320Z,100775.84
2022-07-29T05:59:48.083Z,100776.68
2022-07-29T06:02:16.221Z,100773.35
2022-07-29T06:04:44.435Z,100773.94
2022-07-29T06:07:12.324Z,100774.29
2022-07-29T06:09:39.923Z,100771.72
2022-07-29T06:12:07.521Z,100771.31
2022-07-29T06:14:36.367Z,100768.52
2022-07-29T06:17:03.879Z,100772.77
2022-07-29T06:19:31.508Z,100770.40
2022-07-29T06:21:58.988Z,100770.77
2022-07-29T06:24:26.445Z,100776.14
2022-07-29T06:26:53.884Z,100773.35
2022-07-29T06:29:21.428Z,100774.65
2022-07-29T06:31:48.912Z,100777.77
2022-07-29T06:34:17.377Z,100780.94
2022-07-29T06:36:46.002Z,100777.92
2022-07-29T06:39:13.726Z,100776.09
2022-07-29T06:41:41.261Z,100777.97
2022-07-29T06:44:08.760Z,100781.48
2022-07-29T06:46:36.313Z,100782.22
2022-07-29T06:49:05.272Z,100784.15
2022-07-29T06:51:32.812Z,100782.75
2022-07-29T06:54:03.246Z,100778.90
2022-07-29T06:56:38.311Z,100777.25
2022-07-29T06:59:09.608Z,100777.23
2022-07-29T07:01:38.731Z,100776.63
2022-07-29T07:04:06.734Z,100780.65
2022-07-29T07:06:34.261Z,100778.86
2022-07-29T07:09:02.040Z,100777.02
2022-07-29T07:11:29.848Z,100772.02
2022-07-29T07:14:02.610Z,100767.55
2022-07-29T07:16:32.341Z,100767.08
2022-07-29T07:19:00.847Z,100765.23
2022-07-29T07:21:30.447Z,100762.07
2022-07-29T07:23:59.252Z,100762.45
2022-07-29T07:26:27.893Z,100764.31
2022-07-29T07:28:55.579Z,100761.90
2022-07-29T07:31:23.308Z,100762.39
2022-07-29T07:33:50.801Z,100763.99
2022-07-29T07:36:18.240Z,100759.13
2022-07-29T07:38:45.815Z,100761.04
2022-07-29T07:41:13.340Z,100757.95
2022-07-29T07:43:40.857Z,100756.59
2022-07-29T07:46:08.398Z,100758.00
2022-07-29T07:48:37.308Z,100754.98
2022-07-29T07:51:04.883Z,100757.49
2022-07-29T07:53:32.537Z,100759.06
2022-07-29T07:56:10.635Z,100760.27
2022-07-29T07:58:39.579Z,100754.50
2022-07-29T08:01:07.415Z,100754.59
2022-07-29T08:03:35.316Z,100758.01
2022-07-29T08:06:04.742Z,100763.27
2022-07-29T08:08:32.489Z,100762.18
2022-07-29T08:11:02.230Z,100769.66
2022-07-29T08:13:33.852Z,100770.18
2022-07-29T08:16:02.813Z,100768.70
2022-07-29T08:18:31.999Z,100770.52
2022-07-29T08:20:59.817Z,100767.11
2022-07-29T08:23:32.955Z,100767.95
2022-07-29T08:26:14.924Z,100766.05
2022-07-29T08:28:46.646Z,100762.74
2022-07-29T08:31:15.293Z,100764.80
2022-07-29T08:33:43.477Z,100764.41
2022-07-29T08:36:10.981Z,100762.37
2022-07-29T08:38:38.449Z,100757.59
2022-07-29T08:41:06.968Z,100756.35
2022-07-29T08:43:38.120Z,100751.39
2022-07-29T08:46:05.621Z,100752.30
2022-07-29T08:48:34.403Z,100748.77
2022-07-29T08:51:02.749Z,100749.52
2022-07-29T08:53:33.243Z,100747.33
2022-07-29T08:56:02.663Z,100748.08
2022-07-29T08:58:36.878Z,100747.55
2022-07-29T09:01:07.626Z,100746.41
2022-07-29T09:03:42.694Z,100747.88
2022-07-29T09:06:14.080Z,100745.38
2022-07-29T09:08:42.059Z,100749.08
2022-07-29T09:11:12.589Z,100745.94
2022-07-29T09:13:40.832Z,100744.96
2022-07-29T09:16:09.503Z,100746.54
2022-07-29T09:18:42.843Z,100745.77
2022-07-29T09:21:32.208Z,100753.27
2022-07-29T09:24:16.760Z,100750.60
2022-07-29T09:26:46.600Z,100751.21
2022-07-29T09:29:19.169Z,100753.57
2022-07-29T09:31:48.981Z,100752.98
2022-07-29T09:34:22.250Z,100749.84
2022-07-29T09:36:52.080Z,100753.44
2022-07-29T09:39:35.738Z,100746.42
2022-07-29T09:42:06.173Z,100743.81
2022-07-29T09:44:50.919Z,100742.34
2022-07-29T09:47:19.971Z,100742.67
2022-07-29T09:50:03.471Z,100745.08
2022-07-29T09:52:31.138Z,100743.46
2022-07-29T09:55:09.600Z,100745.38
2022-07-29T09:57:37.071Z,100743.05
2022-07-29T10:00:12.341Z,100741.84
2022-07-29T10:02:44.391Z,100737.67
2022-07-29T10:05:36.575Z,100729.98
2022-07-29T10:08:05.442Z,100725.02
2022-07-29T10:10:35.322Z,100724.77
2022-07-29T10:13:08.952Z,100723.85
2022-07-29T10:15:44.151Z,100714.23
2022-07-29T10:18:18.029Z,100713.63
2022-07-29T10:20:46.600Z,100710.66
2022-07-29T10:23:14.801Z,100702.38
2022-07-29T10:25:46.210Z,100698.42
2022-07-29T10:28:16.739Z,100700.86
2022-07-29T10:30:46.763Z,100699.67
2022-07-29T10:33:31.216Z,100696.42
2022-07-29T10:36:25.277Z,100703.23
2022-07-29T10:39:08.644Z,100702.52
2022-07-29T10:42:09.184Z,100702.00
2022-07-29T10:44:41.500Z,100694.80
2022-07-29T10:47:20.616Z,100691.16
2022-07-29T10:50:05.355Z,100689.52
2022-07-29T10:52:53.660Z,100689.95
2022-07-29T10:55:43.080Z,100696.33
2022-07-29T10:58:20.858Z,100698.52
2022-07-29T11:00:54.642Z,100697.48
2022-07-29T11:03:57.473Z,100693.63
2022-07-29T11:06:28.200Z,100694.87
2022-07-29T11:09:20.225Z,100691.16
2022-07-29T11:11:53.783Z,100682.88
2022-07-29T11:14:54.174Z,100682.84
2022-07-29T11:17:24.200Z,100679.39
2022-07-29T11:19:52.859Z,100679.61
2022-07-29T11:22:45.827Z,100677.39
2022-07-29T11:25:19.453Z,100676.02
2022-07-29T11:28:22.905Z,100675.45
2022-07-29T11:30:55.983Z,100672.23
2022-07-29T11:36:27.958Z,100674.66
2022-07-29T11:39:36.336Z,100676.42
2022-07-29T11:45:41.249Z,100672.38
2022-07-29T11:48:27.879Z,100672.25
2022-07-29T11:50:48.507Z,100670.69
2022-07-29T11:53:17.201Z,100666.34
2022-07-29T11:55:51.443Z,100662.22
2022-07-29T11:58:32.574Z,100663.45
2022-07-29T12:01:04.616Z,100661.88
2022-07-29T12:03:35.873Z,100663.71
2022-07-29T12:06:13.506Z,100663.98
2022-07-29T12:08:45.415Z,100661.67
2022-07-29T12:11:20.893Z,100663.52
2022-07-29T12:13:51.292Z,100662.27
2022-07-29T12:16:25.402Z,100657.14
2022-07-29T12:19:05.913Z,100655.52
2022-07-29T12:21:54.059Z,100653.39
2022-07-29T12:24:26.830Z,100656.61
2022-07-29T12:26:57.897Z,100654.20
2022-07-29T12:29:33.623Z,100656.50
2022-07-29T12:32:04.695Z,100657.70
2022-07-29T12:34:33.103Z,100656.44
2022-07-29T12:37:01.913Z,100659.03
2022-07-29T12:39:29.580Z,100667.48
2022-07-29T12:42:04.498Z,100667.02
2022-07-29T12:44:49.943Z,100660.86
2022-07-29T12:47:19.363Z,100656.05
2022-07-29T12:49:48.444Z,100657.98
2022-07-29T12:52:33.119Z,100657.66
2022-07-29T12:55:01.980Z,100652.21
2022-07-29T12:57:29.545Z,100647.35
2022-07-29T13:00:14.070Z,100642.05
2022-07-29T13:02:43.491Z,100641.81
2022-07-29T13:05:13.504Z,100638.89
2022-07-29T13:07:55.548Z,100642.00
2022-07-29T13:10:26.282Z,100641.40
2022-07-29T13:13:11.632Z,100636.52
2022-07-29T13:15:43.908Z,100637.38
2022-07-29T13:18:31.627Z,100631.48
2022-07-29T13:21:12.813Z,100632.60
2022-07-29T13:23:40.466Z,100634.89
2022-07-29T13:26:10.564Z,100629.86
2022-07-29T13:28:38.490Z,100628.67
2022-07-29T13:31:06.103Z,100623.84
2022-07-29T13:33:33.831Z,100626.56
2022-07-29T13:36:01.369Z,100625.31
2022-07-29T13:38:30.840Z,100620.45
2022-07-29T13:40:59.550Z,100615.58
2022-07-29T13:43:27.132Z,100614.93
2022-07-29T13:45:54.794Z,100617.09
2022-07-29T13:48:22.269Z,100612.54
2022-07-29T13:50:49.848Z,100609.55
2022-07-29T13:53:17.975Z,100604.66
2022-07-29T13:55:46.071Z,100604.33
2022-07-29T13:58:13.530Z,100602.58
2022-07-29T14:00:40.997Z,100594.80
2022-07-29T14:03:08.443Z,100594.98
2022-07-29T14:05:35.894Z,100596.91
2022-07-29T14:08:03.420Z,100596.35
2022-07-29T14:10:31.025Z,100596.52
2022-07-29T14:12:58.503Z,100594.84
2022-07-29T14:15:26.155Z,100591.45
2022-07-29T14:17:53.635Z,100593.33
2022-07-29T14:20:21.192Z,100592.08
2022-07-29T14:22:49.391Z,100591.36
2022-07-29T14:25:17.770Z,100589.73
2022-07-29T14:27:48.825Z,100588.72
2022-07-29T14:30:16.281Z,100589.10
2022-07-29T14:32:44.723Z,100586.98
2022-07-29T14:35:12.950Z,100585.28
2022-07-29T14:37:40.877Z,100579.70
2022-07-29T14:40:10.324Z,100576.64
2022-07-29T14:42:38.562Z,100579.50
2022-07-29T14:45:08.926Z,100581.06
2022-07-29T14:47:37.105Z,100576.02
2022-07-29T14:50:05.839Z,100575.56
2022-07-29T14:52:33.586Z,100568.45
2022-07-29T14:55:01.474Z,100570.61
2022-07-29T14:57:30.006Z,100561.73
2022-07-29T14:59:57.433Z,100564.17
2022-07-29T15:02:40.038Z,100565.35
2022-07-29T15:05:12.434Z,100557.70
2022-07-29T15:07:39.962Z,100557.52
2022-07-29T15:10:07.635Z,100555.71
2022-07-29T15:12:36.105Z,100556.97
2022-07-29T15:15:03.995Z,100552.40
2022-07-29T15:17:31.500Z,100548.09
2022-07-29T15:19:59.117Z,100543.06
2022-07-29T15:22:26.716Z,100541.07
2022-07-29T15:24:54.252Z,100540.17
2022-07-29T15:27:23.095Z,100542.04
2022-07-29T15:29:50.595Z,100540.63
2022-07-29T15:32:18.344Z,100537.15
2022-07-29T15:34:45.889Z,100534.80
2022-07-29T15:37:13.449Z,100529.36
2022-07-29T15:39:41.451Z,100532.37
2022-07-29T15:42:08.848Z,100535.01
2022-07-29T15:44:36.376Z,100535.27
2022-07-29T15:47:04.097Z,100531.01
2022-07-29T15:49:47.037Z,100531.83
2022-07-29T15:52:24.909Z,100530.43
2022-07-29T15:54:55.160Z,100529.63
2022-07-29T15:57:23.990Z,100520.88
2022-07-29T15:59:52.401Z,100515.19
2022-07-29T16:02:20.103Z,100511.80
2022-07-29T16:04:47.688Z,100513.94
2022-07-29T16:07:16.280Z,100508.59
2022-07-29T16:09:48.093Z,100505.59
2022-07-29T16:12:18.502Z,100504.52
2022-07-29T16:14:46.063Z,100497.89
2022-07-29T16:17:14.560Z,100498.27
2022-07-29T16:19:44.415Z,100500.46
2022-07-29T16:22:12.568Z,100498.41
2022-07-29T16:24:40.213Z,100501.59
2022-07-29T16:27:08.373Z,100495.55
2022-07-29T16:29:36.941Z,100496.91
2022-07-29T16:32:06.787Z,100490.00
2022-07-29T16:34:34.669Z,100496.27
2022-07-29T16:37:02.613Z,100491.54
2022-07-29T16:39:30.374Z,100492.08
2022-07-29T16:42:00.867Z,100490.54
2022-07-29T16:44:29.851Z,100489.60
2022-07-29T16:46:59.063Z,100491.36
2022-07-29T16:49:28.239Z,100495.82
2022-07-29T16:51:55.919Z,100496.67
2022-07-29T16:54:23.493Z,100497.42
2022-07-29T16:56:51.035Z,100497.73
2022-07-29T16:59:18.555Z,100499.46
2022-07-29T17:01:46.105Z,100499.63
2022-07-29T17:04:14.982Z,100500.84
2022-07-29T17:06:42.613Z,100504.33
2022-07-29T17:09:11.578Z,100497.17
2022-07-29T17:11:52.883Z,100495.86
2022-07-29T17:14:24.748Z,100497.02
2022-07-29T17:17:00.933Z,100492.73
2022-07-29T17:19:35.072Z,100494.39
2022-07-29T17:22:18.749Z,100499.95
2022-07-29T17:24:48.029Z,100497.77
2022-07-29T17:27:17.408Z,100495.89
2022-07-29T17:29:45.580Z,100503.83
2022-07-29T17:32:13.957Z,100499.86
2022-07-29T17:34:42.858Z,100498.31
2022-07-29T17:37:12.179Z,100497.89
2022-07-29T17:39:41.158Z,100501.55
2022-07-29T17:42:11.444Z,100502.02
2022-07-29T17:44:39.868Z,100502.55
2022-07-29T17:47:15.866Z,100504.86
2022-07-29T17:49:45.395Z,100504.11
2022-07-29T17:52:12.928Z,100506.67
2022-07-29T17:54:40.370Z,100510.52
2022-07-29T17:57:08.050Z,100513.77
2022-07-29T17:59:35.496Z,100510.16
2022-07-29T18:02:03.042Z,100510.58
2022-07-29T18:04:31.660Z,100511.24
2022-07-29T18:06:59.772Z,100517.52
2022-07-29T18:09:27.708Z,100517.22
2022-07-29T18:11:55.187Z,100515.02
2022-07-29T18:14:22.736Z,100517.33
2022-07-29T18:16:50.235Z,100520.63
2022-07-29T18:19:17.690Z,100520.85
2022-07-29T18:21:54.583Z,100523.64
2022-07-29T18:24:25.806Z,100522.25
2022-07-29T18:26:53.902Z,100527.93
2022-07-29T18:29:21.608Z,100526.16
2022-07-29T18:31:49.189Z,100525.23
2022-07-29T18:34:16.889Z,100522.19
2022-07-29T18:36:45.859Z,100522.77
2022-07-29T18:39:20.696Z,100518.59
2022-07-29T18:41:51.494Z,100514.05
2022-07-29T18:44:21.748Z,100513.00
2022-07-29T18:46:51.936Z,100511.35
2022-07-29T18:49:19.950Z,100511.80
2022-07-29T18:51:48.852Z,100513.77
2022-07-29T18:54:17.615Z,100515.09
2022-07-29T18:56:46.209Z,100516.89
2022-07-29T18:59:19.786Z,100526.18
2022-07-29T19:01:48.767Z,100528.48
2022-07-29T19:04:17.736Z,100533.58
2022-07-29T19:06:45.571Z,100533.23
2022-07-29T19:09:13.119Z,100533.35
2022-07-29T19:11:40.869Z,100537.64
2022-07-29T19:14:08.520Z,100536.28
2022-07-29T19:16:36.198Z,100538.42
2022-07-29T19:19:03.934Z,100539.25
2022-07-29T19:21:31.383Z,100539.20
2022-07-29T19:23:59.461Z,100540.70
2022-07-29T19:26:29.565Z,100541.83
2022-07-29T19:28:57.014Z,100549.77
2022-07-29T19:31:24.582Z,100551.84
2022-07-29T19:33:52.142Z,100553.00
2022-07-29T19:36:19.638Z,100554.69
2022-07-29T19:38:47.093Z,100553.56
2022-07-29T19:41:17.028Z,100552.95
2022-07-29T19:43:51.208Z,100551.83
2022-07-29T19:46:23.881Z,100551.70
2022-07-29T19:48:52.904Z,100555.64
2022-07-29T19:51:21.548Z,100556.58
2022-07-29T19:53:50.645Z,100560.11
2022-07-29T19:56:18.151Z,100562.78
2022-07-29T19:58:46.327Z,100566.90
2022-07-29T20:01:16.792Z,100566.17
2022-07-29T20:03:44.941Z,100562.12
2022-07-29T20:06:12.795Z,100558.75
2022-07-29T20:08:40.491Z,100561.29
2022-07-29T20:11:07.999Z,100559.81
2022-07-29T20:13:35.512Z,100561.83
2022-07-29T20:16:06.403Z,100561.36
2022-07-29T20:18:34.661Z,100559.98
2022-07-29T20:21:03.577Z,100563.52
2022-07-29T20:23:33.393Z,100567.06
2022-07-29T20:26:01.570Z,100567.14
2022-07-29T20:28:29.067Z,100568.98
2022-07-29T20:30:56.683Z,100572.92
2022-07-29T20:33:24.310Z,100569.42
2022-07-29T20:35:51.921Z,100568.66
2022-07-29T20:38:19.309Z,100572.20
2022-07-29T20:40:46.831Z,100573.64
2022-07-29T20:43:14.319Z,100571.95
2022-07-29T20:45:41.867Z,100570.07
2022-07-29T20:48:10.423Z,100572.58
2022-07-29T20:50:37.889Z,100575.65
2022-07-29T20:53:05.372Z,100578.34
2022-07-29T20:55:32.908Z,100580.49
2022-07-29T20:58:00.345Z,100581.40
2022-07-29T21:00:28.740Z,100579.53
2022-07-29T21:02:56.418Z,100583.14
2022-07-29T21:05:24.365Z,100580.53
2022-07-29T21:07:55.425Z,100580.08
2022-07-29T21:10:25.795Z,100577.77
2022-07-29T21:12:53.301Z,100574.79
2022-07-29T21:15:21.854Z,100578.67
2022-07-29T21:17:49.389Z,100580.91
2022-07-29T21:20:19.186Z,100578.20
2022-07-29T21:22:46.692Z,100570.27
2022-07-29T21:25:14.241Z,100567.64
2022-07-29T21:27:57.734Z,100564.95
2022-07-29T21:30:25.202Z,100566.89
2022-07-29T21:32:52.783Z,100561.03
2022-07-29T21:36:01.996Z,100558.01
2022-07-29T21:38:08.029Z,100556.40
2022-07-29T21:40:35.548Z,100563.20
2022-07-29T21:43:03.129Z,100563.86
2022-07-29T21:45:30.556Z,100565.41
2022-07-29T21:47:58.020Z,100561.86
2022-07-29T21:50:25.553Z,100566.20
2022-07-29T21:52:53.354Z,100567.57
2022-07-29T21:55:20.924Z,100569.78
2022-07-29T21:57:50.192Z,100565.50
2022-07-29T22:00:17.723Z,100567.76
2022-07-29T22:02:45.322Z,100568.88
2022-07-29T22:05:13.970Z,100566.69
2022-07-29T22:07:54.313Z,100561.69
2022-07-29T22:10:28.211Z,100562.71
2022-07-29T22:12:58.323Z,100565.70
2022-07-29T22:15:27.051Z,100563.06
2022-07-29T22:17:54.871Z,100563.73
2022-07-29T22:20:22.802Z,100562.63
2022-07-29T22:22:50.278Z,100563.88
2022-07-29T22:25:17.921Z,100562.67
2022-07-29T22:27:45.955Z,100564.98
2022-07-29T22:30:13.737Z,100566.33
2022-07-29T22:32:41.291Z,100561.30
2022-07-29T22:35:09.068Z,100559.77
2022-07-29T22:37:36.688Z,100559.84
2022-07-29T22:40:05.024Z,100557.33
2022-07-29T22:42:33.790Z,100557.06
2022-07-29T22:45:01.859Z,100554.17
2022-07-29T22:47:46.680Z,100554.12
2022-07-29T22:50:16.997Z,100550.16
2022-07-29T22:52:45.668Z,100544.05
2022-07-29T22:55:14.466Z,100539.20
2022-07-29T22:57:42.095Z,100534.15
2022-07-29T23:00:10.447Z,100534.89
2022-07-29T23:02:38.102Z,100536.40
2022-07-29T23:05:06.728Z,100535.42
2022-07-29T23:07:34.863Z,100532.48
2022-07-29T23:10:02.887Z,100530.73
2022-07-29T23:12:30.337Z,100533.73
2022-07-29T23:14:57.890Z,100528.98
2022-07-29T23:17:25.409Z,100529.73
2022-07-29T23:19:52.873Z,100536.42
2022-07-29T23:22:20.333Z,100534.50
2022-07-29T23:24:47.810Z,100537.50
2022-07-29T23:27:15.277Z,100539.33
2022-07-29T23:29:42.762Z,100542.73
2022-07-29T23:32:10.206Z,100538.76
2022-07-29T23:34:37.812Z,100538.39
2022-07-29T23:37:05.594Z,100539.75
2022-07-29T23:39:33.044Z,100537.34
2022-07-29T23:42:00.617Z,100537.73
2022-07-29T23:44:28.116Z,100534.60
2022-07-29T23:46:55.756Z,100534.77
2022-07-29T23:49:23.254Z,100539.61
2022-07-29T23:51:50.770Z,100537.10
2022-07-29T23:54:18.226Z,100538.83
2022-07-29T23:56:45.684Z,100538.44
2022-07-29T23:59:14.126Z,100536.98
